sensor_id;sensor_type;location;lat;lon;timestamp;pressure;altitude;pressure_sealevel;temperature;humidity
34586;BME280;20816;50.950;11.108;2023-04-30T00:00:37;98893.69;;;6.77;100.00
34586;BME280;20816;50.950;11.108;2023-04-30T00:03:03;98903.28;;;6.69;100.00
34586;BME280;20816;50.950;11.108;2023-04-30T00:05:30;98905.88;;;6.63;100.00
34586;BME280;20816;50.950;11.108;2023-04-30T00:07:57;98909.38;;;6.56;100.00
34586;BME280;20816;50.950;11.108;2023-04-30T00:10:24;98908.53;;;6.52;100.00
34586;BME280;20816;50.950;11.108;2023-04-30T00:12:50;98916.34;;;6.47;100.00
34586;BME280;20816;50.950;11.108;2023-04-30T00:15:17;98910.25;;;6.38;100.00
34586;BME280;20816;50.950;11.108;2023-04-30T00:17:43;98914.59;;;6.54;100.00
34586;BME280;20816;50.950;11.108;2023-04-30T00:20:11;98921.56;;;6.52;100.00
34586;BME280;20816;50.950;11.108;2023-04-30T00:22:38;98921.56;;;6.47;100.00
34586;BME280;20816;50.950;11.108;2023-04-30T00:25:04;98924.19;;;6.40;100.00
34586;BME280;20816;50.950;11.108;2023-04-30T00:27:31;98928.50;;;6.33;100.00
34586;BME280;20816;50.950;11.108;2023-04-30T00:29:58;98926.78;;;6.38;100.00
34586;BME280;20816;50.950;11.108;2023-04-30T00:32:25;98921.56;;;6.26;100.00
34586;BME280;20816;50.950;11.108;2023-04-30T00:34:52;98932.00;;;6.41;100.00
34586;BME280;20816;50.950;11.108;2023-04-30T00:37:18;98931.13;;;6.41;100.00
34586;BME280;20816;50.950;11.108;2023-04-30T00:39:45;98930.28;;;6.43;100.00
34586;BME280;20816;50.950;11.108;2023-04-30T00:42:11;98936.38;;;6.45;100.00
34586;BME280;20816;50.950;11.108;2023-04-30T00:44:38;98941.56;;;6.33;100.00
34586;BME280;20816;50.950;11.108;2023-04-30T00:47:05;98939.84;;;6.31;100.00
34586;BME280;20816;50.950;11.108;2023-04-30T00:49:31;98945.06;;;6.34;100.00
34586;BME280;20816;50.950;11.108;2023-04-30T00:51:58;98952.91;;;6.35;100.00
34586;BME280;20816;50.950;11.108;2023-04-30T00:54:25;98952.03;;;6.38;100.00
34586;BME280;20816;50.950;11.108;2023-04-30T00:56:51;98945.06;;;6.41;100.00
34586;BME280;20816;50.950;11.108;2023-04-30T00:59:18;98953.75;;;6.30;100.00
34586;BME280;20816;50.950;11.108;2023-04-30T01:01:45;98951.13;;;6.27;100.00
34586;BME280;20816;50.950;11.108;2023-04-30T01:04:11;98955.47;;;6.15;100.00
34586;BME280;20816;50.950;11.108;2023-04-30T01:06:38;98956.34;;;6.08;100.00
34586;BME280;20816;50.950;11.108;2023-04-30T01:09:05;98968.47;;;5.94;100.00
34586;BME280;20816;50.950;11.108;2023-04-30T01:14:18;98970.16;;;5.84;100.00
34586;BME280;20816;50.950;11.108;2023-04-30T01:16:53;98971.88;;;5.76;100.00
34586;BME280;20816;50.950;11.108;2023-04-30T01:19:40;98972.75;;;5.74;100.00
34586;BME280;20816;50.950;11.108;2023-04-30T01:22:31;98975.34;;;5.71;100.00
34586;BME280;20816;50.950;11.108;2023-04-30T01:28:08;98979.63;;;5.55;100.00
34586;BME280;20816;50.950;11.108;2023-04-30T01:30:35;98990.00;;;5.47;100.00
34586;BME280;20816;50.950;11.108;2023-04-30T01:33:02;98983.91;;;5.38;100.00
34586;BME280;20816;50.950;11.108;2023-04-30T01:40:53;98989.78;;;5.07;100.00
34586;BME280;20816;50.950;11.108;2023-04-30T01:46:24;98989.69;;;4.94;100.00
34586;BME280;20816;50.950;11.108;2023-04-30T01:49:14;98999.19;;;4.84;100.00
34586;BME280;20816;50.950;11.108;2023-04-30T01:51:47;98997.44;;;4.82;100.00
34586;BME280;20816;50.950;11.108;2023-04-30T01:54:30;99002.75;;;4.98;100.00
34586;BME280;20816;50.950;11.108;2023-04-30T01:57:02;98999.28;;;5.01;100.00
34586;BME280;20816;50.950;11.108;2023-04-30T01:59:34;99006.25;;;5.02;100.00
34586;BME280;20816;50.950;11.108;2023-04-30T02:02:02;99004.50;;;5.02;100.00
34586;BME280;20816;50.950;11.108;2023-04-30T02:04:29;99014.75;;;4.79;100.00
34586;BME280;20816;50.950;11.108;2023-04-30T02:06:55;99011.19;;;4.65;100.00
34586;BME280;20816;50.950;11.108;2023-04-30T02:09:24;99019.81;;;4.61;100.00
34586;BME280;20816;50.950;11.108;2023-04-30T02:11:50;99021.56;;;4.62;100.00
34586;BME280;20816;50.950;11.108;2023-04-30T02:14:17;99019.88;;;4.70;100.00
34586;BME280;20816;50.950;11.108;2023-04-30T02:16:44;99026.03;;;4.80;100.00
34586;BME280;20816;50.950;11.108;2023-04-30T02:19:10;99022.59;;;4.83;100.00
34586;BME280;20816;50.950;11.108;2023-04-30T02:21:37;99029.56;;;4.84;100.00
34586;BME280;20816;50.950;11.108;2023-04-30T02:24:06;99030.38;;;4.76;100.00
34586;BME280;20816;50.950;11.108;2023-04-30T02:26:32;99030.38;;;4.76;100.00
34586;BME280;20816;50.950;11.108;2023-04-30T02:28:59;99027.75;;;4.78;100.00
34586;BME280;20816;50.950;11.108;2023-04-30T02:31:49;99040.72;;;4.67;100.00
34586;BME280;20816;50.950;11.108;2023-04-30T02:34:15;99047.56;;;4.56;100.00
34586;BME280;20816;50.950;11.108;2023-04-30T02:36:42;99043.16;;;4.52;100.00
34586;BME280;20816;50.950;11.108;2023-04-30T02:39:09;99044.03;;;4.54;100.00
34586;BME280;20816;50.950;11.108;2023-04-30T02:41:35;99037.19;;;4.62;100.00
34586;BME280;20816;50.950;11.108;2023-04-30T02:44:02;99039.03;;;4.72;100.00
34586;BME280;20816;50.950;11.108;2023-04-30T02:46:29;99045.13;;;4.74;100.00
34586;BME280;20816;50.950;11.108;2023-04-30T02:48:55;99032.94;;;4.73;100.00
34586;BME280;20816;50.950;11.108;2023-04-30T02:51:22;99038.16;;;4.73;100.00
34586;BME280;20816;50.950;11.108;2023-04-30T02:53:49;99037.34;;;4.81;100.00
34586;BME280;20816;50.950;11.108;2023-04-30T02:56:16;99032.16;;;4.81;100.00
34586;BME280;20816;50.950;11.108;2023-04-30T02:58:42;99041.59;;;4.69;100.00
34586;BME280;20816;50.950;11.108;2023-04-30T03:01:09;99051.03;;;4.58;100.00
34586;BME280;20816;50.950;11.108;2023-04-30T03:03:36;99051.84;;;4.56;100.00
34586;BME280;20816;50.950;11.108;2023-04-30T03:06:03;99047.63;;;4.65;100.00
34586;BME280;20816;50.950;11.108;2023-04-30T03:08:30;99048.56;;;4.73;100.00
34586;BME280;20816;50.950;11.108;2023-04-30T03:10:56;99051.13;;;4.67;100.00
34586;BME280;20816;50.950;11.108;2023-04-30T03:13:23;99045.84;;;4.61;100.00
34586;BME280;20816;50.950;11.108;2023-04-30T03:15:56;99044.09;;;4.57;100.00
34586;BME280;20816;50.950;11.108;2023-04-30T03:18:25;99049.25;;;4.54;100.00
34586;BME280;20816;50.950;11.108;2023-04-30T03:20:52;99052.63;;;4.44;100.00
34586;BME280;20816;50.950;11.108;2023-04-30T03:23:18;99054.28;;;4.34;100.00
34586;BME280;20816;50.950;11.108;2023-04-30T03:25:45;99045.59;;;4.34;100.00
34586;BME280;20816;50.950;11.108;2023-04-30T03:28:12;99049.00;;;4.30;100.00
34586;BME280;20816;50.950;11.108;2023-04-30T03:30:38;99054.25;;;4.33;100.00
34586;BME280;20816;50.950;11.108;2023-04-30T03:33:05;99056.72;;;4.20;100.00
34586;BME280;20816;50.950;11.108;2023-04-30T03:35:33;99058.47;;;4.21;100.00
34586;BME280;20816;50.950;11.108;2023-04-30T03:38:00;99069.72;;;4.20;100.00
34586;BME280;20816;50.950;11.108;2023-04-30T03:40:27;99066.16;;;4.09;100.00
34586;BME280;20816;50.950;11.108;2023-04-30T03:42:54;99069.53;;;4.05;100.00
34586;BME280;20816;50.950;11.108;2023-04-30T03:45:21;99066.94;;;4.05;100.00
34586;BME280;20816;50.950;11.108;2023-04-30T03:47:49;99073.03;;;4.06;100.00
34586;BME280;20816;50.950;11.108;2023-04-30T03:50:17;99071.34;;;4.09;100.00
34586;BME280;20816;50.950;11.108;2023-04-30T03:52:44;99067.88;;;4.10;100.00
34586;BME280;20816;50.950;11.108;2023-04-30T03:55:11;99074.81;;;4.10;100.00
34586;BME280;20816;50.950;11.108;2023-04-30T03:57:38;99072.13;;;4.01;100.00
34586;BME280;20816;50.950;11.108;2023-04-30T04:00:09;99076.41;;;3.99;100.00
34586;BME280;20816;50.950;11.108;2023-04-30T04:02:36;99073.75;;;3.94;100.00
34586;BME280;20816;50.950;11.108;2023-04-30T04:05:03;99069.44;;;3.94;100.00
34586;BME280;20816;50.950;11.108;2023-04-30T04:07:30;99067.72;;;3.98;100.00
34586;BME280;20816;50.950;11.108;2023-04-30T04:09:56;99071.19;;;3.99;100.00
34586;BME280;20816;50.950;11.108;2023-04-30T04:12:23;99076.34;;;3.94;100.00
34586;BME280;20816;50.950;11.108;2023-04-30T04:14:50;99079.84;;;3.96;100.00
34586;BME280;20816;50.950;11.108;2023-04-30T04:17:17;99079.84;;;3.96;100.00
34586;BME280;20816;50.950;11.108;2023-04-30T04:19:43;99090.25;;;3.96;100.00
34586;BME280;20816;50.950;11.108;2023-04-30T04:22:10;99089.38;;;3.96;100.00
34586;BME280;20816;50.950;11.108;2023-04-30T04:24:37;99098.03;;;3.93;100.00
34586;BME280;20816;50.950;11.108;2023-04-30T04:27:03;99099.75;;;3.91;100.00
34586;BME280;20816;50.950;11.108;2023-04-30T04:29:31;99101.31;;;3.81;100.00
34586;BME280;20816;50.950;11.108;2023-04-30T04:31:58;99105.72;;;3.84;100.00
34586;BME280;20816;50.950;11.108;2023-04-30T04:34:28;99107.38;;;3.79;100.00
34586;BME280;20816;50.950;11.108;2023-04-30T04:36:54;99107.38;;;3.82;100.00
34586;BME280;20816;50.950;11.108;2023-04-30T04:39:21;99104.94;;;3.91;100.00
34586;BME280;20816;50.950;11.108;2023-04-30T04:41:47;99103.25;;;3.98;100.00
34586;BME280;20816;50.950;11.108;2023-04-30T04:44:14;99104.28;;;4.07;100.00
34586;BME280;20816;50.950;11.108;2023-04-30T04:46:41;99102.63;;;4.15;100.00
34586;BME280;20816;50.950;11.108;2023-04-30T04:49:09;99112.38;;;4.32;100.00
34586;BME280;20816;50.950;11.108;2023-04-30T04:51:36;99106.50;;;4.51;100.00
34586;BME280;20816;50.950;11.108;2023-04-30T04:54:05;99108.41;;;4.67;100.00
34586;BME280;20816;50.950;11.108;2023-04-30T04:56:31;99111.16;;;4.83;100.00
34586;BME280;20816;50.950;11.108;2023-04-30T04:58:58;99106.81;;;4.86;100.00
34586;BME280;20816;50.950;11.108;2023-04-30T05:01:24;99107.03;;;5.09;100.00
34586;BME280;20816;50.950;11.108;2023-04-30T05:03:51;99107.22;;;5.30;100.00
34586;BME280;20816;50.950;11.108;2023-04-30T05:06:19;99114.28;;;5.53;100.00
34586;BME280;20816;50.950;11.108;2023-04-30T05:08:46;99119.69;;;5.80;100.00
34586;BME280;20816;50.950;11.108;2023-04-30T05:11:13;99122.44;;;5.96;100.00
34586;BME280;20816;50.950;11.108;2023-04-30T05:13:41;99128.56;;;6.07;100.00
34586;BME280;20816;50.950;11.108;2023-04-30T05:16:07;99121.66;;;6.21;100.00
34586;BME280;20816;50.950;11.108;2023-04-30T05:18:34;99128.72;;;6.43;100.00
34586;BME280;20816;50.950;11.108;2023-04-30T05:21:01;99120.91;;;6.54;100.00
34586;BME280;20816;50.950;11.108;2023-04-30T05:23:27;99117.44;;;6.61;100.00
34586;BME280;20816;50.950;11.108;2023-04-30T05:25:54;99120.06;;;6.72;100.00
34586;BME280;20816;50.950;11.108;2023-04-30T05:28:20;99114.84;;;6.81;100.00
34586;BME280;20816;50.950;11.108;2023-04-30T05:30:47;99123.59;;;6.95;100.00
34586;BME280;20816;50.950;11.108;2023-04-30T05:33:14;99126.19;;;6.98;100.00
34586;BME280;20816;50.950;11.108;2023-04-30T05:35:40;99127.06;;;6.99;100.00
34586;BME280;20816;50.950;11.108;2023-04-30T05:38:07;99127.09;;;7.13;100.00
34586;BME280;20816;50.950;11.108;2023-04-30T05:40:33;99135.81;;;7.18;100.00
34586;BME280;20816;50.950;11.108;2023-04-30T05:43:00;99133.19;;;7.19;100.00
34586;BME280;20816;50.950;11.108;2023-04-30T05:45:27;99135.81;;;7.18;100.00
34586;BME280;20816;50.950;11.108;2023-04-30T05:47:53;99131.44;;;7.24;100.00
34586;BME280;20816;50.950;11.108;2023-04-30T05:50:20;99129.69;;;7.23;100.00
34586;BME280;20816;50.950;11.108;2023-04-30T05:52:47;99137.56;;;7.34;100.00
34586;BME280;20816;50.950;11.108;2023-04-30T05:55:13;99136.69;;;7.37;100.00
34586;BME280;20816;50.950;11.108;2023-04-30T05:57:40;99134.06;;;7.41;100.00
34586;BME280;20816;50.950;11.108;2023-04-30T06:00:07;99128.81;;;7.47;100.00
34586;BME280;20816;50.950;11.108;2023-04-30T06:02:34;99128.81;;;7.44;100.00
34586;BME280;20816;50.950;11.108;2023-04-30T06:05:01;99133.16;;;7.61;100.00
34586;BME280;20816;50.950;11.108;2023-04-30T06:07:28;99132.28;;;7.68;100.00
34586;BME280;20816;50.950;11.108;2023-04-30T06:09:56;99124.41;;;7.78;100.00
34586;BME280;20816;50.950;11.108;2023-04-30T06:12:22;99131.38;;;7.81;100.00
34586;BME280;20816;50.950;11.108;2023-04-30T06:14:50;99121.81;;;7.68;100.00
34586;BME280;20816;50.950;11.108;2023-04-30T06:17:17;99135.75;;;7.79;100.00
34586;BME280;20816;50.950;11.108;2023-04-30T06:19:44;99141.84;;;7.78;100.00
34586;BME280;20816;50.950;11.108;2023-04-30T06:22:11;99133.97;;;7.87;100.00
34586;BME280;20816;50.950;11.108;2023-04-30T06:24:38;99131.38;;;7.84;100.00
34586;BME280;20816;50.950;11.108;2023-04-30T06:27:07;99131.34;;;8.01;100.00
34586;BME280;20816;50.950;11.108;2023-04-30T06:29:33;99139.22;;;7.93;100.00
34586;BME280;20816;50.950;11.108;2023-04-30T06:32:00;99133.03;;;8.11;100.00
34586;BME280;20816;50.950;11.108;2023-04-30T06:34:27;99130.41;;;8.19;100.00
34586;BME280;20816;50.950;11.108;2023-04-30T06:36:53;99131.25;;;8.27;100.00
34586;BME280;20816;50.950;11.108;2023-04-30T06:39:20;99134.72;;;8.29;100.00
34586;BME280;20816;50.950;11.108;2023-04-30T06:41:46;99135.59;;;8.37;100.00
34586;BME280;20816;50.950;11.108;2023-04-30T06:44:13;99137.31;;;8.44;100.00
34586;BME280;20816;50.950;11.108;2023-04-30T06:46:40;99138.19;;;8.45;100.00
34586;BME280;20816;50.950;11.108;2023-04-30T06:49:07;99140.75;;;8.55;100.00
34586;BME280;20816;50.950;11.108;2023-04-30T06:51:34;99134.59;;;8.64;100.00
34586;BME280;20816;50.950;11.108;2023-04-30T06:54:00;99137.28;;;8.50;100.00
34586;BME280;20816;50.950;11.108;2023-04-30T06:56:27;99138.19;;;8.48;100.00
34586;BME280;20816;50.950;11.108;2023-04-30T06:58:54;99133.75;;;8.63;100.00
34586;BME280;20816;50.950;11.108;2023-04-30T07:01:20;99135.38;;;8.77;99.87
34586;BME280;20816;50.950;11.108;2023-04-30T07:03:47;99136.28;;;8.76;98.74
34586;BME280;20816;50.950;11.108;2023-04-30T07:06:14;99137.13;;;8.78;99.26
34586;BME280;20816;50.950;11.108;2023-04-30T07:08:41;99138.81;;;8.89;98.71
34586;BME280;20816;50.950;11.108;2023-04-30T07:11:09;99138.78;;;8.97;99.31
34586;BME280;20816;50.950;11.108;2023-04-30T07:13:37;99141.25;;;9.17;98.63
34586;BME280;20816;50.950;11.108;2023-04-30T07:16:04;99142.00;;;9.33;98.67
34586;BME280;20816;50.950;11.108;2023-04-30T07:18:31;99142.59;;;9.61;96.75
34586;BME280;20816;50.950;11.108;2023-04-30T07:20:58;99143.50;;;9.58;95.84
34586;BME280;20816;50.950;11.108;2023-04-30T07:23:24;99141.59;;;9.78;95.43
34586;BME280;20816;50.950;11.108;2023-04-30T07:25:53;99138.09;;;9.76;93.65
34586;BME280;20816;50.950;11.108;2023-04-30T07:28:20;99143.91;;;10.06;93.29
34586;BME280;20816;50.950;11.108;2023-04-30T07:30:46;99146.28;;;10.30;92.45
34586;BME280;20816;50.950;11.108;2023-04-30T07:33:13;99149.66;;;10.43;91.67
34586;BME280;20816;50.950;11.108;2023-04-30T07:35:39;99146.16;;;10.41;90.57
34586;BME280;20816;50.950;11.108;2023-04-30T07:38:06;99148.97;;;10.27;88.94
34586;BME280;20816;50.950;11.108;2023-04-30T07:40:33;99150.72;;;10.25;88.97
34586;BME280;20816;50.950;11.108;2023-04-30T07:43:02;99155.13;;;10.26;87.66
34586;BME280;20816;50.950;11.108;2023-04-30T07:45:30;99151.44;;;10.39;89.51
34586;BME280;20816;50.950;11.108;2023-04-30T07:47:57;99144.41;;;10.43;89.70
34586;BME280;20816;50.950;11.108;2023-04-30T07:50:24;99158.28;;;10.53;89.11
34586;BME280;20816;50.950;11.108;2023-04-30T07:52:50;99149.13;;;10.81;90.03
34586;BME280;20816;50.950;11.108;2023-04-30T07:55:17;99148.75;;;11.09;86.10
34586;BME280;20816;50.950;11.108;2023-04-30T07:57:43;99147.38;;;11.39;85.59
34586;BME280;20816;50.950;11.108;2023-04-30T08:00:10;99152.88;;;11.23;84.25
34586;BME280;20816;50.950;11.108;2023-04-30T08:02:38;99142.22;;;11.31;86.02
34586;BME280;20816;50.950;11.108;2023-04-30T08:05:06;99141.38;;;12.31;81.91
34586;BME280;20816;50.950;11.108;2023-04-30T08:07:33;99143.31;;;13.03;78.90
34586;BME280;20816;50.950;11.108;2023-04-30T08:09:59;99139.50;;;14.51;73.14
34586;BME280;20816;50.950;11.108;2023-04-30T08:12:26;99136.06;;;15.07;69.23
34586;BME280;20816;50.950;11.108;2023-04-30T08:15:03;99143.00;;;15.37;69.53
34586;BME280;20816;50.950;11.108;2023-04-30T08:17:31;99144.91;;;14.78;69.65
34586;BME280;20816;50.950;11.108;2023-04-30T08:19:59;99155.94;;;14.63;69.07
34586;BME280;20816;50.950;11.108;2023-04-30T08:22:26;99155.34;;;14.82;70.26
34586;BME280;20816;50.950;11.108;2023-04-30T08:24:52;99151.56;;;14.29;69.16
34586;BME280;20816;50.950;11.108;2023-04-30T08:27:21;99141.22;;;13.89;72.25
34586;BME280;20816;50.950;11.108;2023-04-30T08:29:48;99148.97;;;14.27;71.20
34586;BME280;20816;50.950;11.108;2023-04-30T08:32:17;99145.22;;;14.67;69.75
34586;BME280;20816;50.950;11.108;2023-04-30T08:34:45;99140.09;;;14.61;67.93
34586;BME280;20816;50.950;11.108;2023-04-30T08:37:11;99150.44;;;14.38;68.11
34586;BME280;20816;50.950;11.108;2023-04-30T08:39:38;99141.97;;;14.25;69.30
34586;BME280;20816;50.950;11.108;2023-04-30T08:42:07;99143.72;;;14.58;68.63
34586;BME280;20816;50.950;11.108;2023-04-30T08:44:35;99147.22;;;14.89;67.13
34586;BME280;20816;50.950;11.108;2023-04-30T08:47:05;99147.13;;;15.48;66.28
34586;BME280;20816;50.950;11.108;2023-04-30T08:49:32;99136.88;;;15.90;64.47
34586;BME280;20816;50.950;11.108;2023-04-30T08:52:02;99131.38;;;16.19;63.04
34586;BME280;20816;50.950;11.108;2023-04-30T08:54:32;99124.97;;;16.50;62.94
34586;BME280;20816;50.950;11.108;2023-04-30T08:57:00;99120.25;;;17.27;61.19
34586;BME280;20816;50.950;11.108;2023-04-30T08:59:28;99127.94;;;16.89;60.96
34586;BME280;20816;50.950;11.108;2023-04-30T09:01:54;99122.53;;;17.56;59.90
34586;BME280;20816;50.950;11.108;2023-04-30T09:04:21;99126.13;;;16.66;61.25
34586;BME280;20816;50.950;11.108;2023-04-30T09:06:51;99116.03;;;17.63;60.09
34586;BME280;20816;50.950;11.108;2023-04-30T09:09:18;99114.88;;;17.71;58.60
34586;BME280;20816;50.950;11.108;2023-04-30T09:11:44;99119.63;;;17.62;58.75
34586;BME280;20816;50.950;11.108;2023-04-30T09:14:11;99118.59;;;18.07;59.17
34586;BME280;20816;50.950;11.108;2023-04-30T09:16:46;99115.88;;;17.46;59.14
34586;BME280;20816;50.950;11.108;2023-04-30T09:19:22;99122.63;;;17.33;60.05
34586;BME280;20816;50.950;11.108;2023-04-30T09:21:49;99122.00;;;17.70;59.72
34586;BME280;20816;50.950;11.108;2023-04-30T09:24:16;99131.84;;;18.29;57.75
34586;BME280;20816;50.950;11.108;2023-04-30T09:26:44;99124.19;;;18.21;58.42
34586;BME280;20816;50.950;11.108;2023-04-30T09:29:12;99122.66;;;18.55;57.10
34586;BME280;20816;50.950;11.108;2023-04-30T09:31:44;99120.13;;;18.72;56.82
34586;BME280;20816;50.950;11.108;2023-04-30T09:34:13;99123.72;;;18.71;56.30
34586;BME280;20816;50.950;11.108;2023-04-30T09:36:54;99114.88;;;18.90;56.07
34586;BME280;20816;50.950;11.108;2023-04-30T09:39:21;99121.75;;;17.76;56.46
34586;BME280;20816;50.950;11.108;2023-04-30T09:41:49;99119.44;;;18.09;57.76
34586;BME280;20816;50.950;11.108;2023-04-30T09:44:30;99125.44;;;17.50;59.56
34586;BME280;20816;50.950;11.108;2023-04-30T09:46:57;99113.84;;;17.95;58.46
34586;BME280;20816;50.950;11.108;2023-04-30T09:49:25;99108.59;;;19.10;56.26
34586;BME280;20816;50.950;11.108;2023-04-30T09:51:57;99110.16;;;18.57;56.78
34586;BME280;20816;50.950;11.108;2023-04-30T09:54:28;99104.34;;;18.29;58.41
34586;BME280;20816;50.950;11.108;2023-04-30T09:56:57;99105.06;;;18.32;58.04
34586;BME280;20816;50.950;11.108;2023-04-30T09:59:32;99091.47;;;18.77;56.87
34586;BME280;20816;50.950;11.108;2023-04-30T10:02:02;99097.22;;;19.42;56.96
34586;BME280;20816;50.950;11.108;2023-04-30T10:04:36;99101.25;;;18.58;56.81
34586;BME280;20816;50.950;11.108;2023-04-30T10:07:07;99091.47;;;19.32;55.52
34586;BME280;20816;50.950;11.108;2023-04-30T10:09:39;99097.56;;;18.42;55.52
34586;BME280;20816;50.950;11.108;2023-04-30T10:12:13;99087.31;;;17.93;57.19
34586;BME280;20816;50.950;11.108;2023-04-30T10:14:51;99096.25;;;18.90;55.18
34586;BME280;20816;50.950;11.108;2023-04-30T10:17:22;99095.28;;;18.72;54.94
34586;BME280;20816;50.950;11.108;2023-04-30T10:19:56;99091.44;;;19.15;54.67
34586;BME280;20816;50.950;11.108;2023-04-30T10:22:24;99084.16;;;18.83;55.60
34586;BME280;20816;50.950;11.108;2023-04-30T10:24:51;99087.41;;;18.50;56.95
34586;BME280;20816;50.950;11.108;2023-04-30T10:27:19;99082.38;;;18.44;57.91
34586;BME280;20816;50.950;11.108;2023-04-30T10:29:46;99078.59;;;18.10;57.78
34586;BME280;20816;50.950;11.108;2023-04-30T10:32:14;99080.84;;;18.38;56.95
34586;BME280;20816;50.950;11.108;2023-04-30T10:41:05;99060.38;;;18.59;56.32
34586;BME280;20816;50.950;11.108;2023-04-30T10:43:34;99063.00;;;19.33;56.30
34586;BME280;20816;50.950;11.108;2023-04-30T10:46:02;99064.00;;;19.13;55.86
34586;BME280;20816;50.950;11.108;2023-04-30T10:48:32;99059.03;;;19.42;55.10
34586;BME280;20816;50.950;11.108;2023-04-30T10:51:00;99056.91;;;19.31;55.03
34586;BME280;20816;50.950;11.108;2023-04-30T10:53:30;99058.88;;;19.62;55.64
34586;BME280;20816;50.950;11.108;2023-04-30T10:56:02;99057.03;;;19.64;55.23
34586;BME280;20816;50.950;11.108;2023-04-30T10:58:37;99048.03;;;20.00;52.50
34586;BME280;20816;50.950;11.108;2023-04-30T11:01:10;99056.53;;;19.39;53.04
34586;BME280;20816;50.950;11.108;2023-04-30T11:03:40;99050.03;;;20.29;51.98
34586;BME280;20816;50.950;11.108;2023-04-30T11:06:12;99050.72;;;20.00;51.85
34586;BME280;20816;50.950;11.108;2023-04-30T11:08:44;99042.69;;;20.00;52.30
34586;BME280;20816;50.950;11.108;2023-04-30T11:11:17;99040.50;;;20.08;52.32
34586;BME280;20816;50.950;11.108;2023-04-30T11:13:52;99046.81;;;20.71;50.69
34586;BME280;20816;50.950;11.108;2023-04-30T11:16:30;99042.94;;;20.77;50.06
34586;BME280;20816;50.950;11.108;2023-04-30T11:19:11;99040.25;;;19.79;52.03
34586;BME280;20816;50.950;11.108;2023-04-30T11:27:26;99030.16;;;19.84;54.06
34586;BME280;20816;50.950;11.108;2023-04-30T11:29:55;99022.44;;;20.13;52.32
34586;BME280;20816;50.950;11.108;2023-04-30T11:32:24;99029.72;;;19.59;53.71
34586;BME280;20816;50.950;11.108;2023-04-30T11:34:53;99022.28;;;19.66;52.37
34586;BME280;20816;50.950;11.108;2023-04-30T11:37:29;99023.09;;;20.97;50.88
34586;BME280;20816;50.950;11.108;2023-04-30T11:39:59;99014.06;;;20.84;49.59
34586;BME280;20816;50.950;11.108;2023-04-30T11:42:27;99017.69;;;20.67;52.03
34586;BME280;20816;50.950;11.108;2023-04-30T11:45:21;99018.88;;;19.45;52.85
34586;BME280;20816;50.950;11.108;2023-04-30T11:47:50;99015.72;;;18.64;54.90
34586;BME280;20816;50.950;11.108;2023-04-30T11:50:22;99015.41;;;19.43;55.60
34586;BME280;20816;50.950;11.108;2023-04-30T11:52:56;99012.06;;;19.39;53.97
34586;BME280;20816;50.950;11.108;2023-04-30T11:55:24;99006.47;;;19.26;54.66
34586;BME280;20816;50.950;11.108;2023-04-30T11:57:54;99007.91;;;18.97;55.05
34586;BME280;20816;50.950;11.108;2023-04-30T12:00:28;99001.53;;;19.88;53.02
34586;BME280;20816;50.950;11.108;2023-04-30T12:02:56;99009.97;;;20.29;53.19
34586;BME280;20816;50.950;11.108;2023-04-30T12:05:24;98999.25;;;20.78;51.57
34586;BME280;20816;50.950;11.108;2023-04-30T12:07:56;99001.56;;;20.04;53.02
34586;BME280;20816;50.950;11.108;2023-04-30T12:10:24;99007.81;;;20.36;52.30
34586;BME280;20816;50.950;11.108;2023-04-30T12:12:52;99013.75;;;20.25;52.57
34586;BME280;20816;50.950;11.108;2023-04-30T12:15:23;99003.06;;;19.92;53.62
34586;BME280;20816;50.950;11.108;2023-04-30T12:17:55;99002.03;;;19.95;53.63
34586;BME280;20816;50.950;11.108;2023-04-30T12:20:25;99009.09;;;19.80;54.18
34586;BME280;20816;50.950;11.108;2023-04-30T12:22:52;99010.50;;;20.03;53.04
34586;BME280;20816;50.950;11.108;2023-04-30T12:25:20;99004.94;;;20.72;51.07
34586;BME280;20816;50.950;11.108;2023-04-30T12:27:51;99012.75;;;20.10;51.98
34586;BME280;20816;50.950;11.108;2023-04-30T12:30:23;99005.59;;;20.28;51.92
34586;BME280;20816;50.950;11.108;2023-04-30T12:32:53;99002.03;;;20.61;52.20
34586;BME280;20816;50.950;11.108;2023-04-30T12:35:22;98999.09;;;21.27;50.72
34586;BME280;20816;50.950;11.108;2023-04-30T12:37:51;98996.56;;;21.24;51.27
34586;BME280;20816;50.950;11.108;2023-04-30T12:40:19;98991.50;;;20.58;51.10
34586;BME280;20816;50.950;11.108;2023-04-30T12:42:47;98986.94;;;20.11;52.38
34586;BME280;20816;50.950;11.108;2023-04-30T12:45:51;98983.56;;;20.56;52.12
34586;BME280;20816;50.950;11.108;2023-04-30T12:48:21;98990.72;;;20.07;53.22
34586;BME280;20816;50.950;11.108;2023-04-30T12:50:58;98983.91;;;20.50;52.92
34586;BME280;20816;50.950;11.108;2023-04-30T12:53:26;98973.09;;;20.36;53.00
34586;BME280;20816;50.950;11.108;2023-04-30T12:56:11;98970.44;;;20.20;52.42
34586;BME280;20816;50.950;11.108;2023-04-30T12:58:38;98966.81;;;20.21;53.14
34586;BME280;20816;50.950;11.108;2023-04-30T13:01:10;98966.34;;;19.97;53.32
34586;BME280;20816;50.950;11.108;2023-04-30T13:03:37;98957.41;;;20.14;53.72
34586;BME280;20816;50.950;11.108;2023-04-30T13:06:04;98962.03;;;19.95;53.20
34586;BME280;20816;50.950;11.108;2023-04-30T13:08:32;98964.47;;;19.14;55.81
34586;BME280;20816;50.950;11.108;2023-04-30T13:11:19;98960.19;;;18.75;55.67
34586;BME280;20816;50.950;11.108;2023-04-30T13:13:46;98949.72;;;18.90;55.56
34586;BME280;20816;50.950;11.108;2023-04-30T13:16:13;98954.72;;;18.79;55.90
34586;BME280;20816;50.950;11.108;2023-04-30T13:18:39;98956.31;;;18.45;56.50
34586;BME280;20816;50.950;11.108;2023-04-30T13:21:06;98955.59;;;18.23;57.40
34586;BME280;20816;50.950;11.108;2023-04-30T13:23:33;98958.50;;;18.37;57.25